createdAt,value
2024-01-08T00:00:49.156Z,92.30
2024-01-08T00:02:50.997Z,92.36
2024-01-08T00:04:52.890Z,92.43
2024-01-08T00:06:54.953Z,92.45
2024-01-08T00:08:57.112Z,92.48
2024-01-08T00:10:59.256Z,92.46
2024-01-08T00:13:01.186Z,92.30
2024-01-08T00:15:03.044Z,92.36
2024-01-08T00:17:04.942Z,92.39
2024-01-08T00:19:07.008Z,92.34
2024-01-08T00:21:09.146Z,92.34
2024-01-08T00:23:11.104Z,92.30
2024-01-08T00:25:13.195Z,92.20
2024-01-08T00:27:15.194Z,92.18
2024-01-08T00:29:17.136Z,92.17
2024-01-08T00:31:19.027Z,92.18
2024-01-08T00:33:21.168Z,92.53
2024-01-08T00:35:23.495Z,93.04
2024-01-08T00:37:25.506Z,93.07
2024-01-08T00:39:28.464Z,93.36
2024-01-08T00:41:39.408Z,93.59
2024-01-08T00:43:41.493Z,93.88
2024-01-08T00:45:43.509Z,93.88
2024-01-08T00:47:45.519Z,93.54
2024-01-08T00:49:47.476Z,93.56
2024-01-08T00:51:49.402Z,93.91
2024-01-08T00:53:51.490Z,93.69
2024-01-08T00:55:53.423Z,93.54
2024-01-08T00:57:55.902Z,93.43
2024-01-08T00:59:57.801Z,93.31
2024-01-08T01:01:59.790Z,93.37
2024-01-08T01:04:02.027Z,93.28
2024-01-08T01:06:04.541Z,93.23
2024-01-08T01:08:06.842Z,93.16
2024-01-08T01:10:09.288Z,93.07
2024-01-08T01:12:11.241Z,93.03
2024-01-08T01:14:13.244Z,93.01
2024-01-08T01:16:15.056Z,92.98
2024-01-08T01:18:17.068Z,93.08
2024-01-08T01:20:19.009Z,92.98
2024-01-08T01:22:20.823Z,93.03
2024-01-08T01:24:22.878Z,92.96
2024-01-08T01:26:24.838Z,93.07
2024-01-08T01:28:26.825Z,93.19
2024-01-08T01:30:28.876Z,93.37
2024-01-08T01:32:31.016Z,93.64
2024-01-08T01:34:32.916Z,93.42
2024-01-08T01:36:36.713Z,93.28
2024-01-08T01:38:38.898Z,93.49
2024-01-08T01:40:40.832Z,93.64
2024-01-08T01:42:43.286Z,93.66
2024-01-08T01:44:45.160Z,93.74
2024-01-08T01:46:50.877Z,93.82
2024-01-08T01:48:53.426Z,93.78
2024-01-08T01:50:55.260Z,93.47
2024-01-08T01:52:57.104Z,93.40
2024-01-08T01:54:58.951Z,93.40
2024-01-08T01:57:13.131Z,93.33
2024-01-08T01:59:15.873Z,93.14
2024-01-08T02:01:18.733Z,93.20
2024-01-08T02:03:20.731Z,93.11
2024-01-08T02:05:22.956Z,93.12
2024-01-08T02:07:24.898Z,93.24
2024-01-08T02:09:26.863Z,93.24
2024-01-08T02:11:28.721Z,93.30
2024-01-08T02:13:30.976Z,93.41
2024-01-08T02:15:32.993Z,93.45
2024-01-08T02:17:35.007Z,94.62
2024-01-08T02:19:36.981Z,94.13
2024-01-08T02:21:38.920Z,94.01
2024-01-08T02:23:40.812Z,94.02
2024-01-08T02:25:42.606Z,94.40
2024-01-08T02:27:44.661Z,94.42
2024-01-08T02:29:46.523Z,94.35
2024-01-08T02:31:48.729Z,94.37
2024-01-08T02:34:09.034Z,94.94
2024-01-08T02:36:10.907Z,94.94
2024-01-08T02:38:12.952Z,94.94
2024-01-08T02:40:15.249Z,95.21
2024-01-08T02:42:19.632Z,95.39
2024-01-08T02:44:21.706Z,95.81
2024-01-08T02:46:23.772Z,95.85
2024-01-08T02:48:25.747Z,95.99
2024-01-08T02:50:27.801Z,96.03
2024-01-08T02:52:29.639Z,96.34
2024-01-08T02:54:31.504Z,95.83
2024-01-08T02:56:33.484Z,95.07
2024-01-08T02:58:35.646Z,94.45
2024-01-08T03:00:37.768Z,94.45
2024-01-08T03:02:40.085Z,94.06
2024-01-08T03:04:41.986Z,93.79
2024-01-08T03:06:43.980Z,93.49
2024-01-08T03:08:46.030Z,93.91
2024-01-08T03:10:48.266Z,94.36
2024-01-08T03:12:50.358Z,94.05
2024-01-08T03:14:53.516Z,94.20
2024-01-08T03:16:55.553Z,94.49
2024-01-08T03:18:57.618Z,94.52
2024-01-08T03:20:59.987Z,94.49
2024-01-08T03:23:01.922Z,94.53
2024-01-08T03:25:04.124Z,94.59
2024-01-08T03:27:06.089Z,94.75
2024-01-08T03:29:08.232Z,93.78
2024-01-08T03:31:10.351Z,93.56
2024-01-08T03:33:12.528Z,93.38
2024-01-08T03:35:14.942Z,93.52
2024-01-08T03:37:16.949Z,93.28
2024-01-08T03:39:19.005Z,92.87
2024-01-08T03:41:21.073Z,93.08
2024-01-08T03:43:23.112Z,93.24
2024-01-08T03:45:25.137Z,93.28
2024-01-08T03:47:27.836Z,93.45
2024-01-08T03:49:30.030Z,93.77
2024-01-08T03:51:32.870Z,94.07
2024-01-08T03:53:35.092Z,93.46
2024-01-08T03:55:38.396Z,93.49
2024-01-08T03:57:40.440Z,93.86
2024-01-08T03:59:43.777Z,93.93
2024-01-08T04:01:46.554Z,93.85
2024-01-08T04:03:48.680Z,93.85
2024-01-08T04:05:51.029Z,93.90
2024-01-08T04:07:53.199Z,93.60
2024-01-08T04:09:55.167Z,93.12
2024-01-08T04:11:57.294Z,93.04
2024-01-08T04:13:59.457Z,92.59
2024-01-08T04:16:01.492Z,92.63
2024-01-08T04:18:03.858Z,92.90
2024-01-08T04:20:07.521Z,92.23
2024-01-08T04:22:09.613Z,92.25
2024-01-08T04:24:11.618Z,91.01
2024-01-08T04:26:17.622Z,91.01
2024-01-08T04:28:22.411Z,90.88
2024-01-08T04:30:24.924Z,91.15
2024-01-08T04:32:27.336Z,91.07
2024-01-08T04:34:29.635Z,90.67
2024-01-08T04:36:31.948Z,90.89
2024-01-08T04:38:34.068Z,90.67
2024-01-08T04:40:36.089Z,90.04
2024-01-08T04:42:38.105Z,89.68
2024-01-08T04:44:40.265Z,90.52
2024-01-08T04:46:45.809Z,90.57
2024-01-08T04:48:47.782Z,90.97
2024-01-08T04:50:50.029Z,91.66
2024-01-08T04:52:52.169Z,91.34
2024-01-08T04:54:54.227Z,89.96
2024-01-08T04:56:59.803Z,90.55
2024-01-08T04:59:01.873Z,89.64
2024-01-08T05:01:04.062Z,89.31
2024-01-08T05:03:10.858Z,89.05
2024-01-08T05:05:13.279Z,89.20
2024-01-08T05:07:15.394Z,89.36
2024-01-08T05:09:17.427Z,89.33
2024-01-08T05:11:19.500Z,89.80
2024-01-08T05:13:21.490Z,89.44
2024-01-08T05:15:23.498Z,89.31
2024-01-08T05:17:25.670Z,89.64
2024-01-08T05:19:27.695Z,89.73
2024-01-08T05:21:29.684Z,89.94
2024-01-08T05:23:31.939Z,90.20
2024-01-08T05:25:37.304Z,90.08
2024-01-08T05:27:39.373Z,89.83
2024-01-08T05:29:41.330Z,89.64
2024-01-08T05:31:43.403Z,89.61
2024-01-08T05:33:45.514Z,89.77
2024-01-08T05:35:47.904Z,89.85
2024-01-08T05:37:49.930Z,89.54
2024-01-08T05:39:51.989Z,89.08
2024-01-08T05:41:54.414Z,89.23
2024-01-08T05:43:56.452Z,89.83
2024-01-08T05:45:58.480Z,90.38
2024-01-08T05:48:00.938Z,89.12
2024-01-08T05:50:05.563Z,88.95
2024-01-08T05:52:07.592Z,89.02
2024-01-08T05:54:09.570Z,88.49
2024-01-08T05:56:11.600Z,88.63
2024-01-08T05:58:14.743Z,88.01
2024-01-08T06:00:18.061Z,87.97
2024-01-08T06:02:20.043Z,88.07
2024-01-08T06:04:22.040Z,88.53
2024-01-08T06:06:24.133Z,88.36
2024-01-08T06:08:26.371Z,88.34
2024-01-08T06:10:28.395Z,89.07
2024-01-08T06:12:31.260Z,87.80
2024-01-08T06:14:33.720Z,87.02
2024-01-08T06:16:36.978Z,87.51
2024-01-08T06:18:39.193Z,87.57
2024-01-08T06:20:41.340Z,87.51
2024-01-08T06:22:43.533Z,87.47
2024-01-08T06:24:45.531Z,87.79
2024-01-08T06:26:47.641Z,88.19
2024-01-08T06:28:49.731Z,87.97
2024-01-08T06:30:51.702Z,87.15
2024-01-08T06:32:53.785Z,87.22
2024-01-08T06:35:01.982Z,86.78
2024-01-08T06:37:04.485Z,86.41
2024-01-08T06:39:10.814Z,86.35
2024-01-08T06:41:13.129Z,86.19
2024-01-08T06:43:15.266Z,85.87
2024-01-08T06:45:17.332Z,85.55
2024-01-08T06:47:19.720Z,85.81
2024-01-08T06:49:21.833Z,85.88
2024-01-08T06:51:23.849Z,86.35
2024-01-08T06:53:25.931Z,86.95
2024-01-08T06:55:28.105Z,86.25
2024-01-08T06:57:30.029Z,86.81
2024-01-08T06:59:32.161Z,87.12
2024-01-08T07:01:34.198Z,86.41
2024-01-08T07:03:38.982Z,86.87
2024-01-08T07:05:42.306Z,86.91
2024-01-08T07:07:46.031Z,88.54
2024-01-08T07:09:47.987Z,87.48
2024-01-08T07:11:50.045Z,87.46
2024-01-08T07:13:52.662Z,86.72
2024-01-08T07:15:54.785Z,86.03
2024-01-08T07:17:59.714Z,86.55
2024-01-08T07:20:02.557Z,85.92
2024-01-08T07:22:05.450Z,86.51
2024-01-08T07:24:07.526Z,86.03
2024-01-08T07:26:09.705Z,86.35
2024-01-08T07:28:12.509Z,87.19
2024-01-08T07:30:15.042Z,86.78
2024-01-08T07:32:17.654Z,86.76
2024-01-08T07:34:20.536Z,87.51
2024-01-08T07:36:22.580Z,87.19
2024-01-08T07:38:24.698Z,87.46
2024-01-08T07:40:27.642Z,87.41
2024-01-08T07:42:29.743Z,86.38
2024-01-08T07:44:31.738Z,83.36
2024-01-08T14:37:29.707Z,61.52
2024-01-08T15:02:05.684Z,70.46
2024-01-08T15:04:08.282Z,74.28
2024-01-08T15:06:10.499Z,71.95
2024-01-08T15:08:13.727Z,70.26
2024-01-08T15:10:16.644Z,70.58
2024-01-08T15:12:18.860Z,70.57
2024-01-08T15:14:25.969Z,72.03
2024-01-08T15:16:29.237Z,72.33
2024-01-08T15:18:31.393Z,72.93
2024-01-08T15:20:33.723Z,72.82
2024-01-08T15:22:35.849Z,73.53
2024-01-08T15:24:39.416Z,73.19
2024-01-08T15:26:41.511Z,74.12
2024-01-08T15:28:48.518Z,73.35
2024-01-08T15:30:50.525Z,73.61
2024-01-08T15:32:52.715Z,73.64
2024-01-08T15:34:54.808Z,72.61
2024-01-08T15:36:56.706Z,73.39
2024-01-08T15:38:58.756Z,75.27
2024-01-08T15:41:00.714Z,75.30
2024-01-08T15:43:03.224Z,74.74
2024-01-08T15:45:06.802Z,74.86
2024-01-08T15:47:09.722Z,74.35
2024-01-08T15:49:12.508Z,74.82
2024-01-08T15:51:14.891Z,73.15
2024-01-08T15:53:20.244Z,73.45
2024-01-08T15:55:22.138Z,73.65
2024-01-08T15:57:24.083Z,72.47
2024-01-08T15:59:26.072Z,72.87
2024-01-08T16:01:28.301Z,73.94
2024-01-08T16:03:30.283Z,74.13
2024-01-08T16:05:32.246Z,74.15
2024-01-08T16:07:35.326Z,74.31
2024-01-08T16:09:37.352Z,74.51
2024-01-08T16:11:39.661Z,75.34
2024-01-08T16:13:41.720Z,74.54
2024-01-08T16:15:44.198Z,72.09
2024-01-08T16:17:46.262Z,73.73
2024-01-08T16:19:49.743Z,72.91
2024-01-08T16:21:51.821Z,74.37
2024-01-08T16:23:59.331Z,73.06
2024-01-08T16:26:08.732Z,74.06
2024-01-08T16:28:10.780Z,74.41
2024-01-08T16:30:15.307Z,71.43
2024-01-08T16:32:17.868Z,72.13
2024-01-08T16:34:20.041Z,71.91
2024-01-08T16:36:22.219Z,70.93
2024-01-08T16:38:24.742Z,71.00
2024-01-08T16:40:27.410Z,71.69
2024-01-08T16:42:29.438Z,72.30
2024-01-08T16:44:31.466Z,72.03
2024-01-08T16:46:34.107Z,72.71
2024-01-08T16:48:36.221Z,73.56
2024-01-08T16:50:38.262Z,71.74
2024-01-08T16:52:40.371Z,72.94
2024-01-08T16:54:42.453Z,71.79
2024-01-08T16:56:44.508Z,72.52
2024-01-08T16:58:46.628Z,72.16
2024-01-08T17:00:49.007Z,71.42
2024-01-08T17:02:51.004Z,72.07
2024-01-08T17:04:53.149Z,72.86
2024-01-08T17:06:59.105Z,71.80
2024-01-08T17:09:05.019Z,72.05
2024-01-08T17:11:07.194Z,72.14
2024-01-08T17:13:09.247Z,72.13
2024-01-08T17:15:11.305Z,72.59
2024-01-08T17:17:13.870Z,71.55
2024-01-08T17:19:15.949Z,73.03
2024-01-08T17:21:18.179Z,73.84
2024-01-08T17:23:20.495Z,72.35
2024-01-08T17:25:22.499Z,72.34
2024-01-08T17:27:24.499Z,73.28
2024-01-08T17:29:26.571Z,72.33
2024-01-08T17:31:28.720Z,71.75
2024-01-08T17:33:30.733Z,72.08
2024-01-08T17:35:33.671Z,71.80
2024-01-08T17:37:37.336Z,71.32
2024-01-08T17:39:41.448Z,72.50
2024-01-08T17:41:43.541Z,71.68
2024-01-08T17:43:48.106Z,71.97
2024-01-08T17:45:50.075Z,71.80
2024-01-08T17:47:52.442Z,72.59
2024-01-08T17:49:54.736Z,71.95
2024-01-08T17:51:56.733Z,72.27
2024-01-08T17:53:58.973Z,71.79
2024-01-08T17:56:01.544Z,71.70
2024-01-08T17:58:09.916Z,72.06
2024-01-08T18:00:15.104Z,72.60
2024-01-08T18:02:18.893Z,71.45
2024-01-08T18:04:23.626Z,71.98
2024-01-08T18:06:27.606Z,72.18
2024-01-08T18:08:33.013Z,72.56
2024-01-08T18:10:35.384Z,72.20
2024-01-08T18:12:39.116Z,71.96
2024-01-08T18:14:42.758Z,72.45
2024-01-08T18:16:46.616Z,73.32
2024-01-08T18:18:48.692Z,70.93
2024-01-08T18:20:50.877Z,71.20
2024-01-08T18:22:53.126Z,71.71
2024-01-08T18:24:55.256Z,72.06
2024-01-08T18:27:00.548Z,72.67
2024-01-08T18:29:03.244Z,72.04
2024-01-08T18:31:05.704Z,72.82
2024-01-08T18:33:08.459Z,72.90
2024-01-08T18:35:12.076Z,73.39
2024-01-08T18:37:14.155Z,74.07
2024-01-08T18:39:17.397Z,73.54
2024-01-08T18:41:19.356Z,73.56
2024-01-08T18:43:21.379Z,74.21
2024-01-08T18:45:23.424Z,74.55
2024-01-08T18:47:30.089Z,74.06
2024-01-08T18:49:33.832Z,73.93
2024-01-08T18:51:36.367Z,74.85
2024-01-08T18:53:38.385Z,76.12
2024-01-08T18:55:40.424Z,76.10
2024-01-08T18:57:42.470Z,75.07
2024-01-08T18:59:44.596Z,76.48
2024-01-08T19:01:46.595Z,76.87
2024-01-08T19:03:48.758Z,75.69
2024-01-08T19:05:51.290Z,76.07
2024-01-08T19:07:53.347Z,76.14
2024-01-08T19:09:55.553Z,76.06
2024-01-08T19:12:00.152Z,75.34
2024-01-08T19:14:02.764Z,76.70
2024-01-08T19:16:05.360Z,77.05
2024-01-08T19:18:07.489Z,77.28
2024-01-08T19:20:10.711Z,75.99
2024-01-08T19:22:12.780Z,76.76
2024-01-08T19:24:15.400Z,76.82
2024-01-08T19:26:17.505Z,76.07
2024-01-08T19:28:41.315Z,77.30
2024-01-08T19:30:45.964Z,76.60
2024-01-08T19:32:48.251Z,77.40
2024-01-08T19:34:50.393Z,77.64
2024-01-08T19:36:52.469Z,76.46
2024-01-08T19:38:54.534Z,76.63
2024-01-08T19:40:56.505Z,76.55
2024-01-08T19:43:00.223Z,75.57
2024-01-08T19:45:03.492Z,76.35
2024-01-08T19:47:07.424Z,77.76
2024-01-08T19:49:17.679Z,77.59
2024-01-08T19:51:29.916Z,78.98
2024-01-08T19:53:31.923Z,78.80
2024-01-08T19:55:34.009Z,78.86
2024-01-08T19:57:39.306Z,78.96
2024-01-08T19:59:41.535Z,78.76
2024-01-08T20:01:47.952Z,77.58
2024-01-08T20:03:49.896Z,77.95
2024-01-08T20:05:52.070Z,78.22
2024-01-08T20:07:54.313Z,77.98
2024-01-08T20:09:56.790Z,79.22
2024-01-08T20:11:58.858Z,78.23
2024-01-08T20:14:00.792Z,77.18
2024-01-08T20:16:07.602Z,78.35
2024-01-08T20:18:10.678Z,78.18
2024-01-08T20:20:12.990Z,78.14
2024-01-08T20:22:15.133Z,77.72
2024-01-08T20:24:17.125Z,78.61
2024-01-08T20:26:19.181Z,77.48
2024-01-08T20:28:21.175Z,77.40
2024-01-08T20:30:23.275Z,77.49
2024-01-08T20:32:25.832Z,79.17
2024-01-08T20:34:27.986Z,77.60
2024-01-08T20:36:30.233Z,77.89
2024-01-08T20:38:33.686Z,78.82
2024-01-08T20:40:35.697Z,78.71
2024-01-08T20:42:38.106Z,78.45
2024-01-08T20:44:40.140Z,78.26
2024-01-08T20:46:42.303Z,77.53
2024-01-08T20:48:44.503Z,78.01
2024-01-08T20:50:46.564Z,77.50
2024-01-08T20:52:48.672Z,78.39
2024-01-08T20:54:50.726Z,77.46
2024-01-08T20:56:52.809Z,78.02
2024-01-08T20:58:54.889Z,76.89
2024-01-08T21:00:56.959Z,74.95
2024-01-08T21:02:59.724Z,75.27
2024-01-08T21:05:02.170Z,75.66
2024-01-08T21:07:04.704Z,74.52
2024-01-08T21:09:07.188Z,75.50
2024-01-08T21:11:09.302Z,75.09
2024-01-08T21:13:11.292Z,75.80
2024-01-08T21:15:13.530Z,74.96
2024-01-08T21:17:16.201Z,74.79
2024-01-08T21:19:18.203Z,74.92
2024-01-08T21:21:20.395Z,74.48
2024-01-08T21:23:22.506Z,74.05
2024-01-08T21:25:25.334Z,73.92
2024-01-08T21:27:27.324Z,73.83
2024-01-08T21:29:30.739Z,73.70
2024-01-08T21:31:32.716Z,73.72
2024-01-08T21:33:39.075Z,75.21
2024-01-08T21:35:41.246Z,74.65
2024-01-08T21:37:43.292Z,74.12
2024-01-08T21:39:48.469Z,74.15
2024-01-08T21:41:50.718Z,74.57
2024-01-08T21:43:52.801Z,74.64
2024-01-08T21:45:54.943Z,74.97
2024-01-08T21:47:57.331Z,74.19
2024-01-08T21:50:01.150Z,74.25
2024-01-08T21:52:03.385Z,74.38
2024-01-08T21:54:05.577Z,74.72
2024-01-08T21:56:08.843Z,72.59
2024-01-08T21:58:10.859Z,73.72
2024-01-08T22:00:13.490Z,73.94
2024-01-08T22:02:15.742Z,73.31
2024-01-08T22:04:17.753Z,73.35
2024-01-08T22:06:19.841Z,73.93
2024-01-08T22:08:23.375Z,73.51
2024-01-08T22:10:26.505Z,73.62
2024-01-08T22:12:28.594Z,72.52
2024-01-08T22:14:30.753Z,72.81
2024-01-08T22:16:32.784Z,72.66
2024-01-08T22:18:34.861Z,73.10
2024-01-08T22:20:36.897Z,72.77
2024-01-08T22:22:39.033Z,72.57
2024-01-08T22:24:41.240Z,71.78
2024-01-08T22:26:43.625Z,72.62
2024-01-08T22:28:46.001Z,73.49
2024-01-08T22:30:47.999Z,74.23
2024-01-08T22:32:50.110Z,72.92
2024-01-08T22:34:52.220Z,73.77
2024-01-08T22:36:54.131Z,73.38
2024-01-08T22:38:56.668Z,72.84
2024-01-08T22:40:58.642Z,73.15
2024-01-08T22:43:00.580Z,73.40
2024-01-08T22:45:02.550Z,74.31
2024-01-08T22:47:04.732Z,74.08
2024-01-08T22:49:06.785Z,73.46
2024-01-08T22:51:08.872Z,73.09
2024-01-08T22:53:10.881Z,72.45
2024-01-08T22:55:13.071Z,72.93
2024-01-08T22:57:16.280Z,72.47
2024-01-08T22:59:18.402Z,73.61
2024-01-08T23:01:20.384Z,72.23
2024-01-08T23:03:22.569Z,71.88
2024-01-08T23:05:25.171Z,71.03
2024-01-08T23:07:27.395Z,71.99
2024-01-08T23:09:29.568Z,71.20
2024-01-08T23:11:32.264Z,70.14
2024-01-08T23:13:34.347Z,70.25
2024-01-08T23:15:36.377Z,70.54
2024-01-08T23:17:38.694Z,70.03
2024-01-08T23:19:41.557Z,70.08
2024-01-08T23:21:44.375Z,70.90
2024-01-08T23:23:46.411Z,70.71
2024-01-08T23:25:48.455Z,71.01
2024-01-08T23:27:50.476Z,70.41
2024-01-08T23:29:53.128Z,69.69
2024-01-08T23:31:55.193Z,70.58
2024-01-08T23:34:07.065Z,71.17
2024-01-08T23:36:16.419Z,71.14
2024-01-08T23:38:18.544Z,70.45
2024-01-08T23:40:20.512Z,71.88
2024-01-08T23:42:22.557Z,71.31
2024-01-08T23:44:24.634Z,70.66
2024-01-08T23:46:27.128Z,70.42
2024-01-08T23:48:29.313Z,70.33
2024-01-08T23:50:31.505Z,70.14
2024-01-08T23:52:34.403Z,70.96
2024-01-08T23:54:36.336Z,71.58
2024-01-08T23:56:38.538Z,70.07
2024-01-08T23:58:40.528Z,70.35
